createdAt,value
2019-03-31T00:02:44.372Z,0.05
2019-03-31T00:05:44.578Z,22464.76
2019-03-31T00:08:44.523Z,22464.76
2019-03-31T00:11:44.601Z,22464.76
2019-03-31T00:14:44.605Z,0.05
2019-03-31T00:17:44.819Z,22464.76
2019-03-31T00:20:44.767Z,22464.76
2019-03-31T00:23:44.828Z,22464.76
2019-03-31T00:26:45.292Z,22464.76
2019-03-31T00:29:44.934Z,22464.76
2019-03-31T00:32:45.036Z,0.05
2019-03-31T00:35:45.159Z,22464.76
2019-03-31T00:38:45.090Z,22464.76
2019-03-31T00:41:45.087Z,0.05
2019-03-31T00:44:45.217Z,22464.76
2019-03-31T00:47:45.256Z,22464.76
2019-03-31T00:50:45.310Z,22464.76
2019-03-31T00:53:45.356Z,22464.76
2019-03-31T00:56:45.521Z,22464.76
2019-03-31T00:59:45.481Z,22464.76
2019-03-31T01:02:45.546Z,22464.76
2019-03-31T01:05:45.691Z,22464.76
2019-03-31T01:08:45.657Z,0.05
2019-03-31T01:14:46.173Z,22464.76
2019-03-31T01:17:45.829Z,22464.76
2019-03-31T01:20:45.865Z,22464.76
2019-03-31T01:23:46.232Z,22464.76
2019-03-31T01:26:45.981Z,22464.76
2019-03-31T01:29:46.748Z,22464.76
2019-03-31T01:32:46.078Z,22464.76
2019-03-31T01:35:46.246Z,22464.76
2019-03-31T01:38:46.193Z,22464.76
2019-03-31T01:41:46.237Z,22464.76
2019-03-31T01:44:46.259Z,0.05
2019-03-31T01:47:46.492Z,22464.76
2019-03-31T01:50:46.416Z,22464.76
2019-03-31T01:53:46.913Z,22464.76
2019-03-31T01:56:46.509Z,22464.76
2019-03-31T01:59:46.578Z,22464.76
2019-03-31T02:02:46.747Z,22464.76
2019-03-31T02:05:46.803Z,22464.76
2019-03-31T02:08:46.824Z,0.05
2019-03-31T02:11:46.736Z,0.05
2019-03-31T02:14:46.876Z,22464.76
2019-03-31T02:17:47.335Z,22464.76
2019-03-31T02:20:47.029Z,0.05
2019-03-31T02:23:47.013Z,22464.76
2019-03-31T02:26:47.072Z,22464.76
2019-03-31T02:29:47.134Z,22464.76
2019-03-31T02:32:47.228Z,22464.76
2019-03-31T02:35:47.245Z,22464.76
2019-03-31T02:38:47.278Z,22464.76
2019-03-31T02:41:47.291Z,0.05
2019-03-31T02:44:47.414Z,22464.76
2019-03-31T02:47:47.453Z,22464.76
2019-03-31T02:50:47.626Z,22464.76
2019-03-31T02:53:47.570Z,22464.76
2019-03-31T02:56:47.611Z,22464.76
2019-03-31T02:59:47.779Z,22464.76
2019-03-31T03:02:47.670Z,0.05
2019-03-31T03:05:48.009Z,22464.76
2019-03-31T03:08:47.925Z,22464.76
2019-03-31T03:11:47.869Z,22464.76
2019-03-31T03:14:47.942Z,22464.76
2019-03-31T03:17:47.993Z,22464.76
2019-03-31T03:20:48.419Z,0.05
2019-03-31T03:23:48.042Z,0.05
2019-03-31T03:26:48.100Z,0.05
2019-03-31T03:29:48.162Z,0.05
2019-03-31T03:33:11.933Z,22464.76
2019-03-31T03:35:48.314Z,22464.76
2019-03-31T03:38:48.353Z,22464.76
2019-03-31T03:41:48.363Z,0.05
2019-03-31T03:44:48.442Z,0.05
2019-03-31T03:47:48.499Z,0.05
2019-03-31T03:50:48.544Z,0.05
2019-03-31T03:53:48.701Z,0.05
2019-03-31T03:56:48.704Z,22464.76
2019-03-31T03:59:48.774Z,22464.76
2019-03-31T04:02:49.228Z,22464.76
2019-03-31T04:08:48.891Z,22464.76
2019-03-31T04:11:48.885Z,0.05
2019-03-31T04:14:48.957Z,0.01
2019-03-31T04:17:49.021Z,0.07
2019-03-31T04:20:49.051Z,0.03
2019-03-31T04:23:49.134Z,0.05
2019-03-31T04:26:49.193Z,0.15
2019-03-31T04:29:49.224Z,0.31
2019-03-31T04:32:49.379Z,0.51
2019-03-31T04:35:49.340Z,0.89
2019-03-31T04:38:49.360Z,1.53
2019-03-31T04:41:49.539Z,2.67
2019-03-31T04:44:49.775Z,4.81
2019-03-31T04:47:49.518Z,8.24
2019-03-31T04:50:52.079Z,14.05
2019-03-31T04:53:49.638Z,22.62
2019-03-31T04:56:49.816Z,34.7
2019-03-31T04:59:49.754Z,50.71
2019-03-31T05:02:50.132Z,70.3
2019-03-31T05:05:49.860Z,93.63
2019-03-31T05:08:49.895Z,120.63
2019-03-31T05:11:49.967Z,151.54
2019-03-31T05:14:50.029Z,186.89
2019-03-31T05:17:50.069Z,226.54
2019-03-31T05:20:50.122Z,271.32
2019-03-31T05:23:50.167Z,319.85
2019-03-31T05:41:50.495Z,664.55
2019-03-31T05:44:50.526Z,724.01
2019-03-31T05:47:50.605Z,785.74
2019-03-31T05:50:50.670Z,846.41
2019-03-31T05:53:50.706Z,907.41
2019-03-31T05:56:51.014Z,968.47
2019-03-31T06:14:51.530Z,1365.61
2019-03-31T06:17:51.238Z,22464.76
2019-03-31T06:20:51.228Z,22464.76
2019-03-31T06:23:51.279Z,22464.76
2019-03-31T06:26:51.462Z,22464.76
2019-03-31T06:29:51.475Z,22464.76
2019-03-31T06:32:51.469Z,22464.76
2019-03-31T06:35:51.507Z,22464.76
2019-03-31T06:38:51.568Z,22464.76
2019-03-31T06:41:51.720Z,22464.76
2019-03-31T06:44:51.715Z,22464.76
2019-03-31T06:47:51.744Z,22464.76
2019-03-31T06:50:51.792Z,22464.76
2019-03-31T06:53:51.889Z,22464.76
2019-03-31T06:56:51.926Z,22464.76
2019-03-31T06:59:51.991Z,22464.76
2019-03-31T07:02:52.057Z,22464.76
2019-03-31T07:05:52.131Z,22464.76
2019-03-31T07:08:52.193Z,22464.76
2019-03-31T07:11:52.528Z,22464.76
2019-03-31T07:14:52.348Z,22464.76
2019-03-31T07:17:52.391Z,22464.76
2019-03-31T07:20:52.462Z,22464.76
2019-03-31T07:23:52.653Z,22464.76
2019-03-31T07:26:52.717Z,22464.76
2019-03-31T07:29:52.720Z,22464.76
2019-03-31T07:32:52.747Z,22464.76
2019-03-31T07:35:53.264Z,22464.76
2019-03-31T07:38:52.925Z,22464.76
2019-03-31T07:41:53.271Z,22464.76
2019-03-31T07:44:53.182Z,22464.76
2019-03-31T07:47:53.145Z,22464.76
2019-03-31T07:50:53.219Z,22464.76
2019-03-31T07:53:53.316Z,22464.76
2019-03-31T07:56:53.411Z,22464.76
2019-03-31T07:59:56.501Z,22464.76
2019-03-31T08:02:53.576Z,22464.76
2019-03-31T08:14:54.041Z,22464.76
2019-03-31T08:17:54.016Z,22464.76
2019-03-31T08:20:54.326Z,22464.76
2019-03-31T08:23:54.182Z,22464.76
2019-03-31T08:26:54.724Z,22464.76
2019-03-31T08:30:00.394Z,22464.76
2019-03-31T08:32:54.447Z,22464.76
2019-03-31T08:35:54.538Z,22464.76
2019-03-31T08:38:54.646Z,22464.76
2019-03-31T08:41:54.728Z,22464.76
2019-03-31T08:44:54.824Z,22464.76
2019-03-31T08:47:54.894Z,22464.76
2019-03-31T08:50:54.994Z,22464.76
2019-03-31T08:53:55.209Z,22464.76
2019-03-31T08:56:55.194Z,22464.76
2019-03-31T08:59:55.289Z,22464.76
2019-03-31T09:02:55.473Z,22464.76
2019-03-31T09:06:01.546Z,22464.76
2019-03-31T09:08:55.665Z,22464.76
2019-03-31T09:11:55.650Z,22464.76
2019-03-31T09:14:55.756Z,22464.76
2019-03-31T09:17:55.843Z,22464.76
2019-03-31T09:20:55.953Z,22464.76
2019-03-31T09:23:56.047Z,22464.76
2019-03-31T09:26:56.246Z,22464.76
2019-03-31T09:29:56.353Z,22464.76
2019-03-31T09:32:56.337Z,22464.76
2019-03-31T09:35:56.545Z,22464.76
2019-03-31T09:38:56.541Z,22464.76
2019-03-31T09:41:56.630Z,22464.76
2019-03-31T09:44:56.735Z,22464.76
2019-03-31T09:47:56.920Z,22464.76
2019-03-31T09:50:56.938Z,22464.76
2019-03-31T09:53:57.138Z,22464.76
2019-03-31T09:56:57.136Z,22464.76
2019-03-31T09:59:57.341Z,22464.76
2019-03-31T10:02:57.327Z,22464.76
2019-03-31T10:06:10.105Z,22464.76
2019-03-31T10:08:57.527Z,22464.76
2019-03-31T10:11:57.631Z,22464.76
2019-03-31T10:14:57.845Z,22464.76
2019-03-31T10:17:57.822Z,22464.76
2019-03-31T10:20:57.949Z,22464.76
2019-03-31T10:23:58.040Z,22464.76
2019-03-31T10:26:58.131Z,22464.76
2019-03-31T10:29:58.260Z,22464.76
2019-03-31T10:32:58.337Z,22464.76
2019-03-31T10:35:58.437Z,22464.76
2019-03-31T10:38:58.539Z,22464.76
2019-03-31T10:41:58.640Z,22464.76
2019-03-31T10:44:58.760Z,22464.76
2019-03-31T10:47:58.834Z,22464.76
2019-03-31T10:50:58.972Z,22464.76
2019-03-31T10:53:59.043Z,22464.76
2019-03-31T10:56:59.149Z,22464.76
2019-03-31T10:59:59.269Z,22464.76
2019-03-31T11:02:59.361Z,22464.76
2019-03-31T11:05:59.463Z,22464.76
2019-03-31T11:08:59.554Z,22464.76
2019-03-31T11:11:59.661Z,22464.76
2019-03-31T11:14:59.801Z,22464.76
2019-03-31T11:17:59.871Z,22464.76
2019-03-31T11:20:59.981Z,22464.76
2019-03-31T11:24:00.067Z,22464.76
2019-03-31T11:27:00.187Z,22464.76
2019-03-31T11:30:00.400Z,22464.76
2019-03-31T11:33:00.394Z,22464.76
2019-03-31T11:36:00.674Z,22464.76
2019-03-31T11:39:00.607Z,22464.76
2019-03-31T11:42:00.824Z,22464.76
2019-03-31T11:45:00.814Z,22464.76
2019-03-31T11:48:01.373Z,22464.76
2019-03-31T11:51:01.015Z,22464.76
2019-03-31T11:54:01.134Z,22464.76
2019-03-31T11:57:01.330Z,22464.76
2019-03-31T12:00:01.360Z,22464.76
2019-03-31T12:03:01.437Z,22464.76
2019-03-31T12:06:01.543Z,22464.76
2019-03-31T12:09:01.653Z,22464.76
2019-03-31T12:12:01.875Z,22464.76
2019-03-31T12:15:01.870Z,22464.76
2019-03-31T12:18:01.956Z,22464.76
2019-03-31T12:21:02.059Z,22464.76
2019-03-31T12:24:02.280Z,22464.76
2019-03-31T12:27:02.424Z,22464.76
2019-03-31T12:30:02.413Z,22464.76
2019-03-31T12:33:02.449Z,22464.76
2019-03-31T12:36:02.553Z,22464.76
2019-03-31T12:39:02.662Z,22464.76
2019-03-31T12:42:02.883Z,22464.76
2019-03-31T12:45:03.003Z,22464.76
2019-03-31T12:48:02.968Z,22464.76
2019-03-31T12:51:03.085Z,22464.76
2019-03-31T12:54:03.160Z,22464.76
2019-03-31T12:57:03.267Z,22464.76
2019-03-31T13:00:03.387Z,22464.76
2019-03-31T13:03:03.473Z,22464.76
2019-03-31T13:06:03.574Z,22464.76
2019-03-31T13:09:03.715Z,22464.76
2019-03-31T13:12:03.867Z,22464.76
2019-03-31T13:15:03.865Z,22464.76
2019-03-31T13:18:04.047Z,22464.76
2019-03-31T13:21:04.058Z,22464.76
2019-03-31T13:24:04.161Z,22464.76
2019-03-31T13:27:04.281Z,22464.76
2019-03-31T13:30:04.409Z,22464.76
2019-03-31T13:33:04.483Z,22464.76
2019-03-31T13:36:04.600Z,22464.76
2019-03-31T13:39:04.818Z,22464.76
2019-03-31T13:42:04.761Z,22464.76
2019-03-31T13:45:04.904Z,22464.76
2019-03-31T13:48:05.007Z,22464.76
2019-03-31T13:51:05.067Z,22464.76
2019-03-31T13:54:05.307Z,22464.76
2019-03-31T13:57:06.200Z,22464.76
2019-03-31T14:00:05.390Z,22464.76
2019-03-31T14:03:05.461Z,22464.76
2019-03-31T14:06:05.559Z,22464.76
2019-03-31T14:09:05.673Z,22464.76
2019-03-31T14:12:05.759Z,22464.76
2019-03-31T14:15:18.381Z,22464.76
2019-03-31T14:18:05.991Z,22464.76
2019-03-31T14:21:06.165Z,22464.76
2019-03-31T14:24:06.271Z,22464.76
2019-03-31T14:27:06.269Z,22464.76
2019-03-31T14:30:06.360Z,22464.76
2019-03-31T14:33:06.438Z,22464.76
2019-03-31T14:36:06.554Z,22464.76
2019-03-31T14:39:06.648Z,22464.76
2019-03-31T14:42:06.729Z,22464.76
2019-03-31T14:45:06.837Z,22464.76
2019-03-31T14:48:06.910Z,22464.76
2019-03-31T14:51:06.993Z,22464.76
2019-03-31T14:54:07.084Z,22464.76
2019-03-31T14:57:07.186Z,22464.76
2019-03-31T15:00:14.539Z,22464.76
2019-03-31T15:03:07.368Z,22464.76
2019-03-31T15:06:07.437Z,22464.76
2019-03-31T15:09:07.531Z,22464.76
2019-03-31T15:12:07.613Z,22464.76
2019-03-31T15:15:07.747Z,22464.76
2019-03-31T15:18:08.233Z,22464.76
2019-03-31T15:21:07.902Z,22464.76
2019-03-31T15:24:07.993Z,22464.76
2019-03-31T15:27:08.058Z,22464.76
2019-03-31T15:30:08.271Z,22464.76
2019-03-31T15:33:08.246Z,22464.76
2019-03-31T15:36:08.301Z,22464.76
2019-03-31T15:39:09.425Z,22464.76
2019-03-31T15:42:08.891Z,22464.76
2019-03-31T15:45:08.582Z,22464.76
2019-03-31T15:48:08.646Z,22464.76
2019-03-31T15:51:08.741Z,22464.76
2019-03-31T15:54:08.837Z,22464.76
2019-03-31T15:57:08.907Z,22464.76
2019-03-31T16:00:09.111Z,22464.76
2019-03-31T16:03:09.060Z,22464.76
2019-03-31T16:06:09.282Z,22464.76
2019-03-31T16:09:22.874Z,22464.76
2019-03-31T16:12:09.309Z,22464.76
2019-03-31T16:15:09.413Z,22464.76
2019-03-31T16:18:09.478Z,22464.76
2019-03-31T16:21:09.546Z,22464.76
2019-03-31T16:24:10.033Z,22464.76
2019-03-31T16:27:09.830Z,22464.76
2019-03-31T16:30:09.825Z,22464.76
2019-03-31T16:54:10.351Z,975.82
2019-03-31T16:57:10.420Z,934.84
2019-03-31T17:00:10.499Z,889.97
2019-03-31T17:03:10.568Z,846.93
2019-03-31T17:06:10.635Z,806.16
2019-03-31T17:09:10.733Z,755.1
2019-03-31T17:12:10.807Z,705.89
2019-03-31T17:15:10.861Z,656.03
2019-03-31T17:36:11.383Z,274.78
2019-03-31T17:39:11.459Z,225.6
2019-03-31T17:42:11.515Z,180.07
2019-03-31T17:45:11.702Z,139.81
2019-03-31T17:48:11.667Z,106.14
2019-03-31T17:51:11.756Z,77.68
2019-03-31T17:54:11.826Z,53.64
2019-03-31T17:57:12.201Z,34.98
2019-03-31T18:00:11.941Z,21.01
2019-03-31T18:03:15.350Z,15.61
2019-03-31T18:06:12.099Z,10.29
2019-03-31T18:09:12.167Z,5.93
2019-03-31T18:12:12.247Z,3.45
2019-03-31T18:15:12.295Z,1.94
2019-03-31T18:18:12.369Z,1.14
2019-03-31T18:21:12.465Z,0.62
2019-03-31T18:24:12.499Z,0.33
2019-03-31T18:27:12.575Z,0.26
2019-03-31T18:30:12.642Z,0.16
2019-03-31T18:33:12.712Z,0.03
2019-03-31T18:36:12.786Z,0.07
2019-03-31T18:39:12.844Z,0.01
2019-03-31T18:42:13.147Z,0.05
2019-03-31T18:45:12.967Z,0.05
2019-03-31T18:48:13.075Z,0.05
2019-03-31T18:51:13.129Z,0.05
2019-03-31T18:54:13.185Z,0.05
2019-03-31T18:57:13.433Z,22464.76
2019-03-31T19:00:13.417Z,0.05
2019-03-31T19:03:13.377Z,0.05
2019-03-31T19:06:13.499Z,22464.76
2019-03-31T19:09:13.566Z,22464.76
2019-03-31T19:12:13.617Z,0.05
2019-03-31T19:15:14.158Z,22464.76
2019-03-31T19:18:13.918Z,22464.76
2019-03-31T19:21:13.812Z,0.05
2019-03-31T19:24:13.865Z,0.05
2019-03-31T19:30:15.818Z,22464.76
2019-03-31T19:33:14.072Z,0.05
2019-03-31T19:36:14.514Z,0.05
2019-03-31T19:39:14.200Z,0.05
2019-03-31T19:42:14.268Z,0.05
2019-03-31T19:45:14.379Z,22464.76
2019-03-31T19:48:14.566Z,22464.76
2019-03-31T19:51:14.518Z,22464.76
2019-03-31T19:54:14.537Z,0.05
2019-03-31T19:57:14.703Z,0.05
2019-03-31T20:00:14.722Z,22464.76
2019-03-31T20:03:14.788Z,22464.76
2019-03-31T20:06:14.796Z,0.05
2019-03-31T20:09:14.851Z,0.05
2019-03-31T20:12:14.918Z,0.05
2019-03-31T20:15:14.973Z,0.05
2019-03-31T20:18:15.072Z,0.05
2019-03-31T20:21:15.116Z,0.05
2019-03-31T20:24:15.245Z,22464.76
2019-03-31T20:27:15.302Z,22464.76
2019-03-31T20:30:15.420Z,0.05
2019-03-31T20:33:15.500Z,0.05
2019-03-31T20:36:15.587Z,0.05
2019-03-31T20:39:15.556Z,22464.76
2019-03-31T20:42:15.595Z,0.05
2019-03-31T20:45:15.637Z,0.05
2019-03-31T20:48:15.707Z,0.05
2019-03-31T20:54:16.322Z,22464.76
2019-03-31T20:57:15.871Z,0.05
2019-03-31T21:00:16.023Z,22464.76
2019-03-31T21:03:16.353Z,0.05
2019-03-31T21:06:16.068Z,0.05
2019-03-31T21:09:16.151Z,0.05
2019-03-31T21:12:16.204Z,0.05
2019-03-31T21:15:16.277Z,0.05
2019-03-31T21:18:16.380Z,22464.76
2019-03-31T21:21:16.397Z,0.05
2019-03-31T21:24:16.525Z,22464.76
2019-03-31T21:27:16.533Z,0.05
2019-03-31T21:30:16.686Z,0.05
2019-03-31T21:33:16.654Z,0.05
2019-03-31T21:36:16.829Z,0.05
2019-03-31T21:39:16.834Z,22464.76
2019-03-31T21:42:16.820Z,0.05
2019-03-31T21:45:17.205Z,0.05
2019-03-31T21:48:17.028Z,22464.76
2019-03-31T21:51:17.087Z,22464.76
2019-03-31T21:54:17.113Z,0.05
2019-03-31T21:57:17.191Z,22464.76
2019-03-31T22:00:17.229Z,0.05
2019-03-31T22:03:17.323Z,22464.76
2019-03-31T22:06:17.490Z,22464.76
2019-03-31T22:09:17.479Z,22464.76
2019-03-31T22:12:17.629Z,22464.76
2019-03-31T22:15:17.736Z,22464.76
2019-03-31T22:18:17.645Z,22464.76
2019-03-31T22:21:17.652Z,0.05
2019-03-31T22:24:18.221Z,22464.76
2019-03-31T22:27:17.890Z,0.05
2019-03-31T22:30:17.894Z,22464.76
2019-03-31T22:33:17.902Z,0.05
2019-03-31T22:36:18.085Z,0.05
2019-03-31T22:39:18.366Z,22464.76
2019-03-31T22:42:18.143Z,22464.76
2019-03-31T22:45:18.225Z,22464.76
2019-03-31T22:48:18.382Z,22464.76
2019-03-31T22:51:18.744Z,22464.76
2019-03-31T22:54:18.404Z,22464.76
2019-03-31T22:57:18.438Z,22464.76
2019-03-31T23:00:18.512Z,22464.76
2019-03-31T23:03:18.995Z,22464.76
2019-03-31T23:06:18.642Z,22464.76
2019-03-31T23:09:19.154Z,22464.76
2019-03-31T23:12:18.716Z,0.05
2019-03-31T23:18:18.945Z,0.05
2019-03-31T23:21:18.939Z,22464.76
2019-03-31T23:24:19.003Z,22464.76
2019-03-31T23:27:19.072Z,22464.76
2019-03-31T23:33:19.193Z,22464.76
2019-03-31T23:39:19.306Z,22464.76
2019-03-31T23:42:19.337Z,0.05
2019-03-31T23:45:19.445Z,22464.76
2019-03-31T23:48:19.500Z,0.05
2019-03-31T23:51:19.575Z,22464.76
2019-03-31T23:54:19.611Z,22464.76
2019-03-31T23:57:19.949Z,22464.76
